sensor_id;sensor_type;location;lat;lon;timestamp;pressure;altitude;pressure_sealevel;temperature
45034;BMP280;30771;47.988;-4.186;2024-03-02T00:00:31;98939.56;;;7.31
45034;BMP280;30771;47.988;-4.186;2024-03-02T00:02:58;98923.88;;;7.31
45034;BMP280;30771;47.988;-4.186;2024-03-02T00:05:24;98917.81;;;7.31
45034;BMP280;30771;47.988;-4.186;2024-03-02T00:07:56;98904.94;;;7.29
45034;BMP280;30771;47.988;-4.186;2024-03-02T00:10:33;98895.28;;;7.30
45034;BMP280;30771;47.988;-4.186;2024-03-02T00:13:03;98883.66;;;7.26
45034;BMP280;30771;47.988;-4.186;2024-03-02T00:15:40;98885.22;;;7.27
45034;BMP280;30771;47.988;-4.186;2024-03-02T00:18:25;98873.31;;;7.31
45034;BMP280;30771;47.988;-4.186;2024-03-02T00:20:53;98856.53;;;7.38
45034;BMP280;30771;47.988;-4.186;2024-03-02T00:23:21;98840.56;;;7.46
45034;BMP280;30771;47.988;-4.186;2024-03-02T00:25:50;98832.06;;;7.51
45034;BMP280;30771;47.988;-4.186;2024-03-02T00:28:21;98813.06;;;7.56
45034;BMP280;30771;47.988;-4.186;2024-03-02T00:30:55;98804.59;;;7.54
45034;BMP280;30771;47.988;-4.186;2024-03-02T00:33:23;98801.41;;;7.52
45034;BMP280;30771;47.988;-4.186;2024-03-02T00:35:50;98798.78;;;7.52
45034;BMP280;30771;47.988;-4.186;2024-03-02T00:38:17;98803.44;;;7.49
45034;BMP280;30771;47.988;-4.186;2024-03-02T00:40:44;98804.13;;;7.45
45034;BMP280;30771;47.988;-4.186;2024-03-02T00:43:43;98807.97;;;7.42
45034;BMP280;30771;47.988;-4.186;2024-03-02T00:46:16;98809.59;;;7.43
45034;BMP280;30771;47.988;-4.186;2024-03-02T00:49:03;98809.59;;;7.43
45034;BMP280;30771;47.988;-4.186;2024-03-02T00:51:32;98812.41;;;7.42
45034;BMP280;30771;47.988;-4.186;2024-03-02T00:54:02;98814.81;;;7.43
45034;BMP280;30771;47.988;-4.186;2024-03-02T00:56:32;98809.13;;;7.46
45034;BMP280;30771;47.988;-4.186;2024-03-02T00:58:59;98815.97;;;7.47
45034;BMP280;30771;47.988;-4.186;2024-03-02T01:01:26;98827.00;;;7.49
45034;BMP280;30771;47.988;-4.186;2024-03-02T01:03:53;98812.69;;;7.52
45034;BMP280;30771;47.988;-4.186;2024-03-02T01:06:20;98820.22;;;7.49
45034;BMP280;30771;47.988;-4.186;2024-03-02T01:08:47;98822.03;;;7.48
45034;BMP280;30771;47.988;-4.186;2024-03-02T01:11:18;98806.50;;;7.46
45034;BMP280;30771;47.988;-4.186;2024-03-02T01:13:45;98800.53;;;7.39
45034;BMP280;30771;47.988;-4.186;2024-03-02T01:16:13;98799.97;;;7.37
45034;BMP280;30771;47.988;-4.186;2024-03-02T01:18:40;98797.59;;;7.36
45034;BMP280;30771;47.988;-4.186;2024-03-02T01:21:07;98788.34;;;7.33
45034;BMP280;30771;47.988;-4.186;2024-03-02T01:23:34;98784.34;;;7.31
45034;BMP280;30771;47.988;-4.186;2024-03-02T01:26:00;98772.06;;;7.31
45034;BMP280;30771;47.988;-4.186;2024-03-02T01:28:27;98775.28;;;7.27
45034;BMP280;30771;47.988;-4.186;2024-03-02T01:30:54;98765.63;;;7.27
45034;BMP280;30771;47.988;-4.186;2024-03-02T01:33:21;98760.66;;;7.26
45034;BMP280;30771;47.988;-4.186;2024-03-02T01:35:48;98761.19;;;7.28
45034;BMP280;30771;47.988;-4.186;2024-03-02T01:38:14;98728.56;;;7.30
45034;BMP280;30771;47.988;-4.186;2024-03-02T01:40:41;98727.56;;;7.31
45034;BMP280;30771;47.988;-4.186;2024-03-02T01:43:08;98722.09;;;7.33
45034;BMP280;30771;47.988;-4.186;2024-03-02T01:45:35;98709.25;;;7.31
45034;BMP280;30771;47.988;-4.186;2024-03-02T01:48:07;98712.84;;;7.30
45034;BMP280;30771;47.988;-4.186;2024-03-02T01:50:34;98711.06;;;7.31
45034;BMP280;30771;47.988;-4.186;2024-03-02T01:53:02;98707.84;;;7.29
45034;BMP280;30771;47.988;-4.186;2024-03-02T01:55:31;98701.22;;;7.26
45034;BMP280;30771;47.988;-4.186;2024-03-02T01:57:59;98706.00;;;7.29
45034;BMP280;30771;47.988;-4.186;2024-03-02T02:00:26;98696.78;;;7.27
45034;BMP280;30771;47.988;-4.186;2024-03-02T02:02:54;98699.19;;;7.28
45034;BMP280;30771;47.988;-4.186;2024-03-02T02:05:21;98701.22;;;7.26
45034;BMP280;30771;47.988;-4.186;2024-03-02T02:07:48;98693.59;;;7.25
45034;BMP280;30771;47.988;-4.186;2024-03-02T02:10:15;98707.50;;;7.25
45034;BMP280;30771;47.988;-4.186;2024-03-02T02:12:42;98693.38;;;7.26
45034;BMP280;30771;47.988;-4.186;2024-03-02T02:17:51;98692.16;;;7.29
45034;BMP280;30771;47.988;-4.186;2024-03-02T02:20:18;98704.88;;;7.25
45034;BMP280;30771;47.988;-4.186;2024-03-02T02:23:02;98698.91;;;7.18
45034;BMP280;30771;47.988;-4.186;2024-03-02T02:25:29;98692.28;;;7.16
45034;BMP280;30771;47.988;-4.186;2024-03-02T02:27:57;98696.81;;;7.09
45034;BMP280;30771;47.988;-4.186;2024-03-02T02:30:27;98677.53;;;7.03
45034;BMP280;30771;47.988;-4.186;2024-03-02T02:32:54;98674.34;;;7.01
45034;BMP280;30771;47.988;-4.186;2024-03-02T02:35:21;98680.00;;;6.98
45034;BMP280;30771;47.988;-4.186;2024-03-02T02:37:49;98676.66;;;6.91
45034;BMP280;30771;47.988;-4.186;2024-03-02T02:40:16;98676.75;;;6.85
45034;BMP280;30771;47.988;-4.186;2024-03-02T02:42:43;98677.97;;;6.82
45034;BMP280;30771;47.988;-4.186;2024-03-02T02:45:09;98672.34;;;6.79
45034;BMP280;30771;47.988;-4.186;2024-03-02T02:47:38;98675.63;;;6.74
45034;BMP280;30771;47.988;-4.186;2024-03-02T02:50:07;98682.72;;;6.67
45034;BMP280;30771;47.988;-4.186;2024-03-02T02:52:35;98675.88;;;6.66
45034;BMP280;30771;47.988;-4.186;2024-03-02T02:55:04;98684.63;;;6.60
45034;BMP280;30771;47.988;-4.186;2024-03-02T02:57:34;98676.38;;;6.56
45034;BMP280;30771;47.988;-4.186;2024-03-02T03:00:08;98683.06;;;6.52
45034;BMP280;30771;47.988;-4.186;2024-03-02T03:02:44;98666.44;;;6.47
45034;BMP280;30771;47.988;-4.186;2024-03-02T03:05:13;98663.25;;;6.45
45034;BMP280;30771;47.988;-4.186;2024-03-02T03:07:41;98661.25;;;6.40
45034;BMP280;30771;47.988;-4.186;2024-03-02T03:10:08;98669.72;;;6.36
45034;BMP280;30771;47.988;-4.186;2024-03-02T03:12:35;98664.56;;;6.29
45034;BMP280;30771;47.988;-4.186;2024-03-02T03:15:03;98653.16;;;6.24
45034;BMP280;30771;47.988;-4.186;2024-03-02T03:17:31;98656.00;;;6.22
45034;BMP280;30771;47.988;-4.186;2024-03-02T03:19:58;98649.94;;;6.22
45034;BMP280;30771;47.988;-4.186;2024-03-02T03:22:25;98648.38;;;6.21
45034;BMP280;30771;47.988;-4.186;2024-03-02T03:24:51;98638.91;;;6.20
45034;BMP280;30771;47.988;-4.186;2024-03-02T03:27:18;98640.72;;;6.19
45034;BMP280;30771;47.988;-4.186;2024-03-02T03:29:46;98633.09;;;6.18
45034;BMP280;30771;47.988;-4.186;2024-03-02T03:32:13;98621.03;;;6.17
45034;BMP280;30771;47.988;-4.186;2024-03-02T03:34:40;98622.06;;;6.16
45034;BMP280;30771;47.988;-4.186;2024-03-02T03:37:07;98618.66;;;6.15
45034;BMP280;30771;47.988;-4.186;2024-03-02T03:39:35;98623.28;;;6.13
45034;BMP280;30771;47.988;-4.186;2024-03-02T03:42:04;98616.25;;;6.14
45034;BMP280;30771;47.988;-4.186;2024-03-02T03:44:31;98629.91;;;6.16
45034;BMP280;30771;47.988;-4.186;2024-03-02T03:46:57;98629.69;;;6.17
45034;BMP280;30771;47.988;-4.186;2024-03-02T03:49:24;98613.59;;;6.20
45034;BMP280;30771;47.988;-4.186;2024-03-02T03:51:51;98608.28;;;6.27
45034;BMP280;30771;47.988;-4.186;2024-03-02T03:54:18;98607.00;;;6.36
45034;BMP280;30771;47.988;-4.186;2024-03-02T03:56:45;98592.94;;;6.37
45034;BMP280;30771;47.988;-4.186;2024-03-02T03:59:11;98591.47;;;6.41
45034;BMP280;30771;47.988;-4.186;2024-03-02T04:01:38;98593.53;;;6.39
45034;BMP280;30771;47.988;-4.186;2024-03-02T04:04:04;98595.69;;;6.42
45034;BMP280;30771;47.988;-4.186;2024-03-02T04:06:31;98594.75;;;6.36
45034;BMP280;30771;47.988;-4.186;2024-03-02T04:08:58;98592.38;;;6.35
45034;BMP280;30771;47.988;-4.186;2024-03-02T04:11:25;98595.19;;;6.33
45034;BMP280;30771;47.988;-4.186;2024-03-02T04:13:52;98595.22;;;6.27
45034;BMP280;30771;47.988;-4.186;2024-03-02T04:16:23;98599.66;;;6.26
45034;BMP280;30771;47.988;-4.186;2024-03-02T04:18:49;98593.13;;;6.17
45034;BMP280;30771;47.988;-4.186;2024-03-02T04:21:16;98602.16;;;6.15
45034;BMP280;30771;47.988;-4.186;2024-03-02T04:23:43;98602.63;;;6.12
45034;BMP280;30771;47.988;-4.186;2024-03-02T04:26:10;98610.72;;;6.04
45034;BMP280;30771;47.988;-4.186;2024-03-02T04:28:36;98608.09;;;6.04
45034;BMP280;30771;47.988;-4.186;2024-03-02T04:31:03;98615.31;;;6.02
45034;BMP280;30771;47.988;-4.186;2024-03-02T04:33:30;98616.53;;;5.99
45034;BMP280;30771;47.988;-4.186;2024-03-02T04:35:57;98627.25;;;5.98
45034;BMP280;30771;47.988;-4.186;2024-03-02T04:38:24;98627.25;;;5.98
45034;BMP280;30771;47.988;-4.186;2024-03-02T04:40:50;98633.84;;;6.00
45034;BMP280;30771;47.988;-4.186;2024-03-02T04:43:17;98651.69;;;6.03
45034;BMP280;30771;47.988;-4.186;2024-03-02T04:45:45;98622.56;;;6.06
45034;BMP280;30771;47.988;-4.186;2024-03-02T04:48:12;98606.00;;;6.12
45034;BMP280;30771;47.988;-4.186;2024-03-02T04:50:40;98598.13;;;6.19
45034;BMP280;30771;47.988;-4.186;2024-03-02T04:53:07;98588.06;;;6.22
45034;BMP280;30771;47.988;-4.186;2024-03-02T04:55:34;98583.63;;;6.23
45034;BMP280;30771;47.988;-4.186;2024-03-02T04:58:01;98572.16;;;6.24
45034;BMP280;30771;47.988;-4.186;2024-03-02T05:00:28;98572.75;;;6.26
45034;BMP280;30771;47.988;-4.186;2024-03-02T05:02:54;98576.13;;;6.26
45034;BMP280;30771;47.988;-4.186;2024-03-02T05:05:21;98581.59;;;6.25
45034;BMP280;30771;47.988;-4.186;2024-03-02T05:07:48;98582.59;;;6.24
45034;BMP280;30771;47.988;-4.186;2024-03-02T05:10:15;98574.41;;;6.20
45034;BMP280;30771;47.988;-4.186;2024-03-02T05:12:42;98571.63;;;6.15
45034;BMP280;30771;47.988;-4.186;2024-03-02T05:15:10;98581.50;;;6.13
45034;BMP280;30771;47.988;-4.186;2024-03-02T05:17:37;98585.91;;;6.13
45034;BMP280;30771;47.988;-4.186;2024-03-02T05:20:08;98584.78;;;6.09
45034;BMP280;30771;47.988;-4.186;2024-03-02T05:22:35;98594.03;;;6.05
45034;BMP280;30771;47.988;-4.186;2024-03-02T05:25:05;98593.28;;;5.98
45034;BMP280;30771;47.988;-4.186;2024-03-02T05:27:32;98601.38;;;5.90
45034;BMP280;30771;47.988;-4.186;2024-03-02T05:30:00;98609.19;;;5.90
45034;BMP280;30771;47.988;-4.186;2024-03-02T05:32:27;98597.53;;;5.92
45034;BMP280;30771;47.988;-4.186;2024-03-02T05:34:54;98583.25;;;5.95
45034;BMP280;30771;47.988;-4.186;2024-03-02T05:37:21;98587.03;;;5.99
45034;BMP280;30771;47.988;-4.186;2024-03-02T05:39:48;98574.44;;;5.96
45034;BMP280;30771;47.988;-4.186;2024-03-02T05:42:15;98577.03;;;5.96
45034;BMP280;30771;47.988;-4.186;2024-03-02T05:44:43;98572.81;;;5.95
45034;BMP280;30771;47.988;-4.186;2024-03-02T05:47:10;98568.63;;;5.94
45034;BMP280;30771;47.988;-4.186;2024-03-02T05:49:36;98561.78;;;5.93
45034;BMP280;30771;47.988;-4.186;2024-03-02T05:52:03;98578.66;;;5.90
45034;BMP280;30771;47.988;-4.186;2024-03-02T05:54:30;98577.50;;;5.86
45034;BMP280;30771;47.988;-4.186;2024-03-02T05:56:57;98580.28;;;5.84
45034;BMP280;30771;47.988;-4.186;2024-03-02T05:59:42;98583.38;;;5.82
45034;BMP280;30771;47.988;-4.186;2024-03-02T06:02:10;98587.00;;;5.80
45034;BMP280;30771;47.988;-4.186;2024-03-02T06:04:37;98585.19;;;5.81
45034;BMP280;30771;47.988;-4.186;2024-03-02T06:07:03;98584.38;;;5.80
45034;BMP280;30771;47.988;-4.186;2024-03-02T06:09:30;98574.94;;;5.79
45034;BMP280;30771;47.988;-4.186;2024-03-02T06:11:57;98567.31;;;5.78
45034;BMP280;30771;47.988;-4.186;2024-03-02T06:14:24;98563.28;;;5.82
45034;BMP280;30771;47.988;-4.186;2024-03-02T06:16:50;98558.84;;;5.82
45034;BMP280;30771;47.988;-4.186;2024-03-02T06:19:17;98550.81;;;5.84
45034;BMP280;30771;47.988;-4.186;2024-03-02T06:21:44;98551.03;;;5.82
45034;BMP280;30771;47.988;-4.186;2024-03-02T06:24:11;98555.00;;;5.85
45034;BMP280;30771;47.988;-4.186;2024-03-02T06:26:37;98551.81;;;5.83
45034;BMP280;30771;47.988;-4.186;2024-03-02T06:29:06;98554.44;;;5.83
45034;BMP280;30771;47.988;-4.186;2024-03-02T06:31:32;98554.44;;;5.83
45034;BMP280;30771;47.988;-4.186;2024-03-02T06:33:59;98546.44;;;5.78
45034;BMP280;30771;47.988;-4.186;2024-03-02T06:36:26;98556.06;;;5.77
45034;BMP280;30771;47.988;-4.186;2024-03-02T06:38:52;98550.25;;;5.75
45034;BMP280;30771;47.988;-4.186;2024-03-02T06:41:19;98553.28;;;5.72
45034;BMP280;30771;47.988;-4.186;2024-03-02T06:43:46;98556.34;;;5.69
45034;BMP280;30771;47.988;-4.186;2024-03-02T06:46:13;98564.38;;;5.68
45034;BMP280;30771;47.988;-4.186;2024-03-02T06:48:41;98565.41;;;5.67
45034;BMP280;30771;47.988;-4.186;2024-03-02T06:51:08;98570.41;;;5.68
45034;BMP280;30771;47.988;-4.186;2024-03-02T06:53:35;98566.41;;;5.66
45034;BMP280;30771;47.988;-4.186;2024-03-02T06:56:01;98563.59;;;5.67
45034;BMP280;30771;47.988;-4.186;2024-03-02T06:58:28;98575.63;;;5.68
45034;BMP280;30771;47.988;-4.186;2024-03-02T07:00:55;98569.81;;;5.66
45034;BMP280;30771;47.988;-4.186;2024-03-02T07:03:21;98575.22;;;5.65
45034;BMP280;30771;47.988;-4.186;2024-03-02T07:05:48;98574.03;;;5.67
45034;BMP280;30771;47.988;-4.186;2024-03-02T07:08:15;98582.22;;;5.71
45034;BMP280;30771;47.988;-4.186;2024-03-02T07:10:42;98577.66;;;5.66
45034;BMP280;30771;47.988;-4.186;2024-03-02T07:13:08;98582.22;;;5.71
45034;BMP280;30771;47.988;-4.186;2024-03-02T07:15:35;98580.41;;;5.71
45034;BMP280;30771;47.988;-4.186;2024-03-02T07:18:21;98566.34;;;5.72
45034;BMP280;30771;47.988;-4.186;2024-03-02T07:20:47;98575.56;;;5.75
45034;BMP280;30771;47.988;-4.186;2024-03-02T07:23:16;98580.59;;;5.76
45034;BMP280;30771;47.988;-4.186;2024-03-02T07:25:42;98580.00;;;5.74
45034;BMP280;30771;47.988;-4.186;2024-03-02T07:28:12;98579.38;;;5.79
45034;BMP280;30771;47.988;-4.186;2024-03-02T07:30:39;98580.28;;;5.84
45034;BMP280;30771;47.988;-4.186;2024-03-02T07:33:06;98586.09;;;5.93
45034;BMP280;30771;47.988;-4.186;2024-03-02T07:35:33;98582.59;;;5.99
45034;BMP280;30771;47.988;-4.186;2024-03-02T07:38:00;98581.19;;;6.03
45034;BMP280;30771;47.988;-4.186;2024-03-02T07:40:27;98576.13;;;6.08
45034;BMP280;30771;47.988;-4.186;2024-03-02T07:42:53;98571.41;;;6.17
45034;BMP280;30771;47.988;-4.186;2024-03-02T07:45:21;98571.38;;;6.23
45034;BMP280;30771;47.988;-4.186;2024-03-02T07:47:48;98569.25;;;6.32
45034;BMP280;30771;47.988;-4.186;2024-03-02T07:50:16;98571.22;;;6.36
45034;BMP280;30771;47.988;-4.186;2024-03-02T07:52:43;98572.84;;;6.37
45034;BMP280;30771;47.988;-4.186;2024-03-02T07:55:10;98564.78;;;6.39
45034;BMP280;30771;47.988;-4.186;2024-03-02T07:57:36;98561.94;;;6.40
45034;BMP280;30771;47.988;-4.186;2024-03-02T08:00:04;98568.97;;;6.40
45034;BMP280;30771;47.988;-4.186;2024-03-02T08:02:30;98572.19;;;6.42
45034;BMP280;30771;47.988;-4.186;2024-03-02T08:04:57;98576.41;;;6.43
45034;BMP280;30771;47.988;-4.186;2024-03-02T08:07:24;98574.56;;;6.43
45034;BMP280;30771;47.988;-4.186;2024-03-02T08:09:51;98576.41;;;6.43
45034;BMP280;30771;47.988;-4.186;2024-03-02T08:12:17;98586.00;;;6.49
45034;BMP280;30771;47.988;-4.186;2024-03-02T08:14:46;98573.63;;;6.56
45034;BMP280;30771;47.988;-4.186;2024-03-02T08:17:12;98577.00;;;6.63
45034;BMP280;30771;47.988;-4.186;2024-03-02T08:19:39;98581.72;;;6.73
45034;BMP280;30771;47.988;-4.186;2024-03-02T08:22:06;98585.22;;;6.85
45034;BMP280;30771;47.988;-4.186;2024-03-02T08:24:33;98568.41;;;6.92
45034;BMP280;30771;47.988;-4.186;2024-03-02T08:27:00;98582.91;;;7.06
45034;BMP280;30771;47.988;-4.186;2024-03-02T08:29:27;98583.66;;;7.13
45034;BMP280;30771;47.988;-4.186;2024-03-02T08:31:54;98579.69;;;7.22
45034;BMP280;30771;47.988;-4.186;2024-03-02T08:34:21;98592.09;;;7.27
45034;BMP280;30771;47.988;-4.186;2024-03-02T08:36:47;98594.41;;;7.35
45034;BMP280;30771;47.988;-4.186;2024-03-02T08:39:15;98598.31;;;7.44
45034;BMP280;30771;47.988;-4.186;2024-03-02T08:41:44;98604.47;;;7.49
45034;BMP280;30771;47.988;-4.186;2024-03-02T08:44:11;98602.47;;;7.63
45034;BMP280;30771;47.988;-4.186;2024-03-02T08:46:38;98603.50;;;7.74
45034;BMP280;30771;47.988;-4.186;2024-03-02T08:49:06;98599.78;;;7.81
45034;BMP280;30771;47.988;-4.186;2024-03-02T08:51:33;98613.00;;;7.98
45034;BMP280;30771;47.988;-4.186;2024-03-02T08:53:59;98602.66;;;8.03
45034;BMP280;30771;47.988;-4.186;2024-03-02T08:56:27;98617.84;;;8.12
45034;BMP280;30771;47.988;-4.186;2024-03-02T08:58:53;98630.00;;;8.18
45034;BMP280;30771;47.988;-4.186;2024-03-02T09:01:20;98635.16;;;8.25
45034;BMP280;30771;47.988;-4.186;2024-03-02T09:03:48;98656.13;;;8.25
45034;BMP280;30771;47.988;-4.186;2024-03-02T09:06:16;98664.56;;;8.39
45034;BMP280;30771;47.988;-4.186;2024-03-02T09:08:47;98676.41;;;8.41
45034;BMP280;30771;47.988;-4.186;2024-03-02T09:11:16;98685.09;;;8.53
45034;BMP280;30771;47.988;-4.186;2024-03-02T09:13:42;98711.31;;;8.53
45034;BMP280;30771;47.988;-4.186;2024-03-02T09:16:09;98723.72;;;8.69
45034;BMP280;30771;47.988;-4.186;2024-03-02T09:18:38;98751.81;;;8.80
45034;BMP280;30771;47.988;-4.186;2024-03-02T09:21:05;98770.16;;;8.92
45034;BMP280;30771;47.988;-4.186;2024-03-02T09:23:32;98790.00;;;8.99
45034;BMP280;30771;47.988;-4.186;2024-03-02T09:25:59;98815.69;;;8.97
45034;BMP280;30771;47.988;-4.186;2024-03-02T09:28:26;98853.69;;;9.06
45034;BMP280;30771;47.988;-4.186;2024-03-02T09:30:53;98903.13;;;8.98
45034;BMP280;30771;47.988;-4.186;2024-03-02T09:33:22;98942.06;;;9.12
45034;BMP280;30771;47.988;-4.186;2024-03-02T09:35:49;98984.88;;;9.24
45034;BMP280;30771;47.988;-4.186;2024-03-02T09:38:18;99007.50;;;9.37
45034;BMP280;30771;47.988;-4.186;2024-03-02T09:40:45;99038.09;;;9.43
45034;BMP280;30771;47.988;-4.186;2024-03-02T09:43:12;99073.63;;;9.46
45034;BMP280;30771;47.988;-4.186;2024-03-02T09:45:40;99097.06;;;9.59
45034;BMP280;30771;47.988;-4.186;2024-03-02T09:48:07;99141.75;;;9.59
45034;BMP280;30771;47.988;-4.186;2024-03-02T09:50:34;99179.34;;;9.59
45034;BMP280;30771;47.988;-4.186;2024-03-02T09:53:01;99227.69;;;9.70
45034;BMP280;30771;47.988;-4.186;2024-03-02T09:55:28;99265.19;;;9.77
45034;BMP280;30771;47.988;-4.186;2024-03-02T09:57:55;99289.81;;;9.82
45034;BMP280;30771;47.988;-4.186;2024-03-02T10:00:22;99330.88;;;9.95
45034;BMP280;30771;47.988;-4.186;2024-03-02T10:02:49;99354.00;;;9.93
45034;BMP280;30771;47.988;-4.186;2024-03-02T10:05:26;99386.38;;;9.87
45034;BMP280;30771;47.988;-4.186;2024-03-02T10:08:02;99416.13;;;9.87
45034;BMP280;30771;47.988;-4.186;2024-03-02T10:10:37;99447.16;;;9.97
45034;BMP280;30771;47.988;-4.186;2024-03-02T10:13:07;99472.81;;;10.01
45034;BMP280;30771;47.988;-4.186;2024-03-02T10:15:35;99493.06;;;10.01
45034;BMP280;30771;47.988;-4.186;2024-03-02T10:18:04;99528.25;;;10.00
45034;BMP280;30771;47.988;-4.186;2024-03-02T10:20:31;99550.38;;;9.92
45034;BMP280;30771;47.988;-4.186;2024-03-02T10:23:14;99562.13;;;9.90
45034;BMP280;30771;47.988;-4.186;2024-03-02T10:25:41;99586.75;;;9.95
45034;BMP280;30771;47.988;-4.186;2024-03-02T10:28:22;99587.97;;;10.11
45034;BMP280;30771;47.988;-4.186;2024-03-02T10:30:49;99596.94;;;10.28
45034;BMP280;30771;47.988;-4.186;2024-03-02T10:33:18;99628.97;;;10.25
45034;BMP280;30771;47.988;-4.186;2024-03-02T10:35:47;99651.66;;;10.19
45034;BMP280;30771;47.988;-4.186;2024-03-02T10:38:15;99663.25;;;10.12
45034;BMP280;30771;47.988;-4.186;2024-03-02T10:40:46;99678.69;;;10.02
45034;BMP280;30771;47.988;-4.186;2024-03-02T10:43:14;99692.25;;;10.05
45034;BMP280;30771;47.988;-4.186;2024-03-02T10:45:42;99682.41;;;10.19
45034;BMP280;30771;47.988;-4.186;2024-03-02T10:48:09;99709.44;;;10.08
45034;BMP280;30771;47.988;-4.186;2024-03-02T10:50:36;99716.84;;;10.11
45034;BMP280;30771;47.988;-4.186;2024-03-02T10:53:03;99722.13;;;10.18
45034;BMP280;30771;47.988;-4.186;2024-03-02T10:55:35;99722.06;;;10.24
45034;BMP280;30771;47.988;-4.186;2024-03-02T10:58:04;99722.00;;;10.31
45034;BMP280;30771;47.988;-4.186;2024-03-02T11:00:38;99714.41;;;10.41
45034;BMP280;30771;47.988;-4.186;2024-03-02T11:03:06;99722.13;;;10.42
45034;BMP280;30771;47.988;-4.186;2024-03-02T11:05:43;99729.75;;;10.44
45034;BMP280;30771;47.988;-4.186;2024-03-02T11:08:13;99742.38;;;10.60
45034;BMP280;30771;47.988;-4.186;2024-03-02T11:10:50;99749.25;;;10.61
45034;BMP280;30771;47.988;-4.186;2024-03-02T11:13:31;99758.19;;;10.60
45034;BMP280;30771;47.988;-4.186;2024-03-02T11:16:03;99776.31;;;10.50
45034;BMP280;30771;47.988;-4.186;2024-03-02T11:18:31;99780.41;;;10.39
45034;BMP280;30771;47.988;-4.186;2024-03-02T11:20:59;99785.19;;;10.24
45034;BMP280;30771;47.988;-4.186;2024-03-02T11:23:36;99769.00;;;9.96
45034;BMP280;30771;47.988;-4.186;2024-03-02T11:26:19;99750.00;;;9.87
45034;BMP280;30771;47.988;-4.186;2024-03-02T11:28:47;99738.91;;;9.85
45034;BMP280;30771;47.988;-4.186;2024-03-02T11:31:16;99714.63;;;9.90
45034;BMP280;30771;47.988;-4.186;2024-03-02T11:33:43;99703.69;;;9.93
45034;BMP280;30771;47.988;-4.186;2024-03-02T11:36:10;99668.00;;;10.03
45034;BMP280;30771;47.988;-4.186;2024-03-02T11:38:43;99658.00;;;10.12
45034;BMP280;30771;47.988;-4.186;2024-03-02T11:41:10;99654.34;;;10.13
45034;BMP280;30771;47.988;-4.186;2024-03-02T11:43:41;99639.69;;;10.24
45034;BMP280;30771;47.988;-4.186;2024-03-02T11:46:10;99633.28;;;10.38
45034;BMP280;30771;47.988;-4.186;2024-03-02T11:48:39;99638.31;;;10.39
45034;BMP280;30771;47.988;-4.186;2024-03-02T11:51:06;99632.69;;;10.54
45034;BMP280;30771;47.988;-4.186;2024-03-02T11:53:33;99632.56;;;10.49
45034;BMP280;30771;47.988;-4.186;2024-03-02T11:56:01;99651.22;;;10.47
45034;BMP280;30771;47.988;-4.186;2024-03-02T11:58:28;99658.06;;;10.48
45034;BMP280;30771;47.988;-4.186;2024-03-02T12:00:56;99679.13;;;10.48
45034;BMP280;30771;47.988;-4.186;2024-03-02T12:03:24;99688.13;;;10.59
45034;BMP280;30771;47.988;-4.186;2024-03-02T12:05:53;99688.28;;;10.64
45034;BMP280;30771;47.988;-4.186;2024-03-02T12:08:20;99699.31;;;10.72
45034;BMP280;30771;47.988;-4.186;2024-03-02T12:11:01;99699.44;;;10.77
45034;BMP280;30771;47.988;-4.186;2024-03-02T12:13:30;99720.81;;;10.87
45034;BMP280;30771;47.988;-4.186;2024-03-02T12:15:58;99736.25;;;10.84
45034;BMP280;30771;47.988;-4.186;2024-03-02T12:18:25;99762.66;;;10.77
45034;BMP280;30771;47.988;-4.186;2024-03-02T12:20:53;99764.78;;;10.69
45034;BMP280;30771;47.988;-4.186;2024-03-02T12:23:23;99797.06;;;10.33
45034;BMP280;30771;47.988;-4.186;2024-03-02T12:25:50;99775.38;;;10.06
45034;BMP280;30771;47.988;-4.186;2024-03-02T12:28:17;99755.88;;;9.89
45034;BMP280;30771;47.988;-4.186;2024-03-02T12:30:44;99725.38;;;9.82
45034;BMP280;30771;47.988;-4.186;2024-03-02T12:33:11;99695.88;;;9.80
45034;BMP280;30771;47.988;-4.186;2024-03-02T12:35:40;99643.25;;;9.86
45034;BMP280;30771;47.988;-4.186;2024-03-02T12:38:07;99620.28;;;10.00
45034;BMP280;30771;47.988;-4.186;2024-03-02T12:40:34;99586.09;;;10.00
45034;BMP280;30771;47.988;-4.186;2024-03-02T12:43:01;99572.41;;;9.91
45034;BMP280;30771;47.988;-4.186;2024-03-02T12:45:28;99556.44;;;9.93
45034;BMP280;30771;47.988;-4.186;2024-03-02T12:47:55;99567.78;;;9.87
45034;BMP280;30771;47.988;-4.186;2024-03-02T12:50:22;99562.84;;;9.79
45034;BMP280;30771;47.988;-4.186;2024-03-02T12:52:55;99562.13;;;9.65
45034;BMP280;30771;47.988;-4.186;2024-03-02T12:55:24;99560.34;;;9.59
45034;BMP280;30771;47.988;-4.186;2024-03-02T12:57:51;99574.75;;;9.57
45034;BMP280;30771;47.988;-4.186;2024-03-02T13:00:20;99581.22;;;9.54
45034;BMP280;30771;47.988;-4.186;2024-03-02T13:02:47;99588.22;;;9.60
45034;BMP280;30771;47.988;-4.186;2024-03-02T13:05:15;99614.09;;;9.63
45034;BMP280;30771;47.988;-4.186;2024-03-02T13:07:42;99641.31;;;9.75
45034;BMP280;30771;47.988;-4.186;2024-03-02T13:10:09;99625.22;;;9.90
45034;BMP280;30771;47.988;-4.186;2024-03-02T13:12:36;99616.19;;;10.04
45034;BMP280;30771;47.988;-4.186;2024-03-02T13:15:04;99625.28;;;10.08
45034;BMP280;30771;47.988;-4.186;2024-03-02T13:17:34;99625.88;;;10.10
45034;BMP280;30771;47.988;-4.186;2024-03-02T13:20:04;99641.66;;;10.10
45034;BMP280;30771;47.988;-4.186;2024-03-02T13:22:37;99636.13;;;10.11
45034;BMP280;30771;47.988;-4.186;2024-03-02T13:25:05;99639.75;;;10.17
45034;BMP280;30771;47.988;-4.186;2024-03-02T13:27:33;99642.63;;;10.15
45034;BMP280;30771;47.988;-4.186;2024-03-02T13:30:02;99646.78;;;10.23
45034;BMP280;30771;47.988;-4.186;2024-03-02T13:32:29;99646.34;;;10.26
45034;BMP280;30771;47.988;-4.186;2024-03-02T13:34:57;99662.91;;;10.08
45034;BMP280;30771;47.988;-4.186;2024-03-02T13:37:24;99666.38;;;10.02
45034;BMP280;30771;47.988;-4.186;2024-03-02T13:39:51;99682.22;;;9.96
45034;BMP280;30771;47.988;-4.186;2024-03-02T13:42:18;99688.94;;;9.85
45034;BMP280;30771;47.988;-4.186;2024-03-02T13:44:45;99697.84;;;9.53
45034;BMP280;30771;47.988;-4.186;2024-03-02T13:47:14;99667.59;;;9.38
45034;BMP280;30771;47.988;-4.186;2024-03-02T13:49:41;99636.97;;;9.25
45034;BMP280;30771;47.988;-4.186;2024-03-02T13:52:11;99591.25;;;9.33
45034;BMP280;30771;47.988;-4.186;2024-03-02T13:54:41;99553.41;;;9.47
45034;BMP280;30771;47.988;-4.186;2024-03-02T13:57:09;99515.69;;;9.59
45034;BMP280;30771;47.988;-4.186;2024-03-02T13:59:37;99475.31;;;9.72
45034;BMP280;30771;47.988;-4.186;2024-03-02T14:02:05;99434.19;;;9.84
45034;BMP280;30771;47.988;-4.186;2024-03-02T14:04:32;99410.66;;;9.89
45034;BMP280;30771;47.988;-4.186;2024-03-02T14:07:00;99405.50;;;9.94
45034;BMP280;30771;47.988;-4.186;2024-03-02T14:09:28;99390.34;;;9.96
45034;BMP280;30771;47.988;-4.186;2024-03-02T14:11:55;99385.53;;;9.93
45034;BMP280;30771;47.988;-4.186;2024-03-02T14:14:22;99392.47;;;9.87